Time;durP1;ratioP1;P1;durP2;ratioP2;P2;SDS_P1;SDS_P2;PMS_P1;PMS_P2;Temp;Humidity;BMP_temperature;BMP_pressure;BME280_temperature;BME280_humidity;BME280_pressure;Samples;Min_cycle;Max_cycle;Signal;HPM_P1;HPM_P2
2022/04/08 00:02:04;;;;;;;;;;;8.80;99.90;;;;;;4302355;33;44104;-87
2022/04/08 00:04:32;;;;;;;;;;;8.80;99.90;;;;;;4302460;33;43730;-86
2022/04/08 00:07:00;;;;;;;;;;;8.80;99.90;;;;;;4302371;33;45697;-86
2022/04/08 00:09:27;;;;;;;;;;;8.80;99.90;;;;;;4302139;33;43565;-86
2022/04/08 00:11:55;;;;;;;;;;;8.80;99.90;;;;;;4303943;33;43224;-86
2022/04/08 00:14:22;;;;;;;;;;;8.80;99.90;;;;;;4316864;33;42611;-87
2022/04/08 00:16:49;;;;;;;;;;;8.70;99.90;;;;;;4305099;33;44164;-87
2022/04/08 00:19:16;;;;;;;;;;;8.80;99.90;;;;;;4304536;33;43720;-86
2022/04/08 00:21:43;;;;;;;;;;;8.80;99.90;;;;;;4304438;33;44831;-87
2022/04/08 00:24:10;;;;;;;;;;;8.70;99.90;;;;;;4304330;33;45164;-87
2022/04/08 00:26:41;;;;;;;;;;;8.70;99.90;;;;;;4305170;33;45682;-86
2022/04/08 00:29:09;;;;;;;;;;;8.70;99.90;;;;;;4304377;33;45732;-86
2022/04/08 00:31:36;;;;;;;;;;;8.70;99.90;;;;;;4304832;33;43635;-87
2022/04/08 00:34:03;;;;;;;;;;;8.70;99.90;;;;;;4304728;33;45809;-86
2022/04/08 00:36:30;;;;;;;;;;;8.60;99.90;;;;;;4317441;33;43328;-87
2022/04/08 00:38:57;;;;;;;;;;;8.60;99.90;;;;;;4304304;33;44902;-87
2022/04/08 00:41:24;;;;;;;;;;;8.60;99.90;;;;;;4316963;33;44088;-86
2022/04/08 00:43:51;;;;;;;;;;;8.60;99.90;;;;;;4304467;33;43258;-86
2022/04/08 00:46:18;;;;;;;;;;;8.60;99.90;;;;;;4304567;33;43449;-86
2022/04/08 00:48:45;;;;;;;;;;;8.60;99.90;;;;;;4304428;33;45858;-86
2022/04/08 00:51:13;;;;;;;;;;;8.60;99.90;;;;;;4304591;33;45146;-87
2022/04/08 00:53:40;;;;;;;;;;;8.60;99.90;;;;;;4304150;33;44791;-87
2022/04/08 00:56:07;;;;;;;;;;;8.50;99.90;;;;;;4303988;33;44842;-86
2022/04/08 00:58:35;;;;;;;;;;;8.50;99.90;;;;;;4304599;33;43968;-86
2022/04/08 01:01:02;;;;;;;;;;;8.50;99.90;;;;;;4304291;33;44698;-87
2022/04/08 01:03:29;;;;;;;;;;;8.50;99.90;;;;;;4303831;33;45303;-87
2022/04/08 01:05:57;;;;;;;;;;;8.50;99.90;;;;;;4317156;33;43049;-86
2022/04/08 01:08:24;;;;;;;;;;;8.50;99.90;;;;;;4317200;33;43177;-86
2022/04/08 01:10:53;;;;;;;;;;;8.50;99.90;;;;;;4317261;33;43471;-86
2022/04/08 01:13:20;;;;;;;;;;;8.50;99.90;;;;;;4304222;33;42784;-86
2022/04/08 01:15:48;;;;;;;;;;;8.50;99.90;;;;;;4317265;33;44766;-87
2022/04/08 01:18:15;;;;;;;;;;;8.40;99.90;;;;;;4303743;33;44767;-86
2022/04/08 01:20:42;;;;;;;;;;;8.40;99.90;;;;;;4317378;33;44343;-87
2022/04/08 01:23:09;;;;;;;;;;;8.40;99.90;;;;;;4303891;33;45939;-87
2022/04/08 01:25:36;;;;;;;;;;;8.40;99.90;;;;;;4317005;33;42336;-88
2022/04/08 01:28:03;;;;;;;;;;;8.40;99.90;;;;;;4304211;33;43035;-86
2022/04/08 01:30:30;;;;;;;;;;;8.40;99.90;;;;;;4303603;33;45554;-87
2022/04/08 01:32:57;;;;;;;;;;;8.40;99.90;;;;;;4303993;33;44098;-87
2022/04/08 01:35:25;;;;;;;;;;;8.40;99.90;;;;;;4316086;33;44978;-86
2022/04/08 01:37:52;;;;;;;;;;;8.30;99.90;;;;;;4303718;33;43174;-87
2022/04/08 01:40:19;;;;;;;;;;;8.30;99.90;;;;;;4317102;33;42786;-87
2022/04/08 01:42:46;;;;;;;;;;;8.30;99.90;;;;;;4303913;33;44880;-87
2022/04/08 01:45:13;;;;;;;;;;;8.30;99.90;;;;;;4303855;33;43632;-87
2022/04/08 01:47:41;;;;;;;;;;;8.30;99.90;;;;;;4303312;33;45543;-87
2022/04/08 01:50:08;;;;;;;;;;;8.30;99.90;;;;;;4303284;33;44690;-87
2022/04/08 01:52:35;;;;;;;;;;;8.30;99.90;;;;;;4303901;33;43952;-87
2022/04/08 01:55:05;;;;;;;;;;;8.30;99.90;;;;;;4303823;33;43180;-87
2022/04/08 01:57:33;;;;;;;;;;;8.30;99.90;;;;;;4303791;33;45699;-87
2022/04/08 02:00:02;;;;;;;;;;;8.30;99.90;;;;;;4316244;33;46276;-87
2022/04/08 02:02:29;;;;;;;;;;;8.30;99.90;;;;;;4316240;33;44052;-87
2022/04/08 02:04:56;;;;;;;;;;;8.30;99.90;;;;;;4303735;33;44779;-88
2022/04/08 02:07:23;;;;;;;;;;;8.30;99.90;;;;;;4303600;33;44716;-87
2022/04/08 02:09:50;;;;;;;;;;;8.30;99.90;;;;;;4303499;33;42254;-87
2022/04/08 02:12:17;;;;;;;;;;;8.30;99.90;;;;;;4303487;33;45022;-87
2022/04/08 02:14:45;;;;;;;;;;;8.30;99.90;;;;;;4302990;33;44900;-87
2022/04/08 02:17:12;;;;;;;;;;;8.30;99.90;;;;;;4303499;33;44158;-87
2022/04/08 02:19:39;;;;;;;;;;;8.30;99.90;;;;;;4303373;33;44843;-87
2022/04/08 02:22:07;;;;;;;;;;;8.30;99.90;;;;;;4316259;33;45775;-88
2022/04/08 02:24:34;;;;;;;;;;;8.30;99.90;;;;;;4316496;33;46190;-87
2022/04/08 02:27:03;;;;;;;;;;;8.30;99.90;;;;;;4303416;33;43999;-88
2022/04/08 02:29:32;;;;;;;;;;;8.30;99.90;;;;;;4302968;33;44106;-87
2022/04/08 02:31:59;;;;;;;;;;;8.30;99.90;;;;;;4303380;33;45786;-87
2022/04/08 02:34:26;;;;;;;;;;;8.30;99.90;;;;;;4315705;33;42523;-87
2022/04/08 02:36:53;;;;;;;;;;;8.30;99.90;;;;;;4302502;33;45937;-86
2022/04/08 02:39:20;;;;;;;;;;;8.30;99.90;;;;;;4303121;33;43314;-87
2022/04/08 02:41:47;;;;;;;;;;;8.30;99.90;;;;;;4316365;33;42222;-87
2022/04/08 02:44:15;;;;;;;;;;;8.30;99.90;;;;;;4315791;33;45961;-87
2022/04/08 02:46:42;;;;;;;;;;;8.30;99.90;;;;;;4315953;33;43389;-87
2022/04/08 02:49:09;;;;;;;;;;;8.30;99.90;;;;;;4303013;33;44996;-88
2022/04/08 02:51:36;;;;;;;;;;;8.20;99.90;;;;;;4302582;33;43890;-87
2022/04/08 02:54:03;;;;;;;;;;;8.30;99.90;;;;;;4316096;33;44311;-88
2022/04/08 02:56:31;;;;;;;;;;;8.30;99.90;;;;;;4303189;33;45222;-87
2022/04/08 02:59:00;;;;;;;;;;;8.20;99.90;;;;;;4315606;33;43214;-87
2022/04/08 03:01:27;;;;;;;;;;;8.30;99.90;;;;;;4302434;33;44799;-87
2022/04/08 03:03:54;;;;;;;;;;;8.20;99.90;;;;;;4303114;33;43995;-88
2022/04/08 03:06:21;;;;;;;;;;;8.20;99.90;;;;;;4315534;33;45124;-87
2022/04/08 03:08:49;;;;;;;;;;;8.20;99.90;;;;;;4315945;33;43117;-88
2022/04/08 03:11:17;;;;;;;;;;;8.20;99.90;;;;;;4303213;33;44423;-87
2022/04/08 03:13:44;;;;;;;;;;;8.20;99.90;;;;;;4302843;33;45990;-87
2022/04/08 03:16:11;;;;;;;;;;;8.20;99.90;;;;;;4302489;33;43169;-87
2022/04/08 03:18:39;;;;;;;;;;;8.20;99.90;;;;;;4302803;33;43664;-87
2022/04/08 03:21:06;;;;;;;;;;;8.20;99.90;;;;;;4302695;33;43598;-86
2022/04/08 03:23:33;;;;;;;;;;;8.20;99.90;;;;;;4302682;33;45167;-87
2022/04/08 03:26:00;;;;;;;;;;;8.20;99.90;;;;;;4302656;33;43903;-87
2022/04/08 03:28:27;;;;;;;;;;;8.20;99.90;;;;;;4302300;33;45973;-87
2022/04/08 03:30:54;;;;;;;;;;;8.20;99.90;;;;;;4302624;33;43814;-87
2022/04/08 03:33:21;;;;;;;;;;;8.20;99.90;;;;;;4315373;33;42830;-87
2022/04/08 03:35:48;;;;;;;;;;;8.20;99.90;;;;;;4302650;33;45884;-88
2022/04/08 03:38:15;;;;;;;;;;;8.10;99.90;;;;;;4315746;33;44471;-87
2022/04/08 03:40:42;;;;;;;;;;;8.10;99.90;;;;;;4302795;33;45954;-87
2022/04/08 03:43:09;;;;;;;;;;;8.10;99.90;;;;;;4315785;33;43413;-88
2022/04/08 03:45:36;;;;;;;;;;;8.10;99.90;;;;;;4302514;33;44728;-88
2022/04/08 03:48:03;;;;;;;;;;;8.10;99.90;;;;;;4304884;33;44523;-88
2022/04/08 03:50:30;;;;;;;;;;;8.10;99.90;;;;;;4318540;33;44196;-88
2022/04/08 03:52:57;;;;;;;;;;;8.10;99.90;;;;;;4305520;33;43300;-88
2022/04/08 03:55:24;;;;;;;;;;;8.10;99.90;;;;;;4304993;33;44102;-88
2022/04/08 03:57:51;;;;;;;;;;;8.10;99.90;;;;;;4305006;33;43831;-88
2022/04/08 04:00:18;;;;;;;;;;;8.00;99.90;;;;;;4318491;33;43734;-88
2022/04/08 04:02:46;;;;;;;;;;;8.00;99.90;;;;;;4317867;33;43682;-88
2022/04/08 04:05:13;;;;;;;;;;;8.00;99.90;;;;;;4305250;33;44168;-88
2022/04/08 04:07:40;;;;;;;;;;;8.00;99.90;;;;;;4305358;33;46126;-88
2022/04/08 04:10:07;;;;;;;;;;;8.00;99.90;;;;;;4304769;33;44831;-87
2022/04/08 04:12:34;;;;;;;;;;;8.00;99.90;;;;;;4304797;33;43294;-88
2022/04/08 04:15:03;;;;;;;;;;;8.00;99.90;;;;;;4304857;33;43845;-87
2022/04/08 04:17:30;;;;;;;;;;;8.00;99.90;;;;;;4317821;33;44142;-88
2022/04/08 04:19:57;;;;;;;;;;;8.00;99.90;;;;;;4304686;33;43905;-87
2022/04/08 04:22:24;;;;;;;;;;;8.00;99.90;;;;;;4304756;33;42972;-88
2022/04/08 04:24:52;;;;;;;;;;;8.00;99.90;;;;;;4304628;33;42595;-88
2022/04/08 04:27:19;;;;;;;;;;;8.00;99.90;;;;;;4317868;33;42513;-88
2022/04/08 04:29:46;;;;;;;;;;;7.90;99.90;;;;;;4304485;33;45711;-87
2022/04/08 04:32:13;;;;;;;;;;;7.90;99.90;;;;;;4304940;33;44156;-88
2022/04/08 04:34:40;;;;;;;;;;;7.90;99.90;;;;;;4317985;33;44014;-87
2022/04/08 04:37:10;;;;;;;;;;;7.90;99.90;;;;;;4318021;33;44913;-88
2022/04/08 04:39:38;;;;;;;;;;;7.90;99.90;;;;;;4305109;33;44774;-88
2022/04/08 04:42:07;;;;;;;;;;;7.90;99.90;;;;;;4317978;33;44076;-88
2022/04/08 04:44:34;;;;;;;;;;;7.90;99.90;;;;;;4317769;33;44706;-88
2022/04/08 04:47:02;;;;;;;;;;;7.80;99.90;;;;;;4304581;33;46018;-88
2022/04/08 04:49:29;;;;;;;;;;;7.80;99.90;;;;;;4304673;33;43449;-88
2022/04/08 04:51:56;;;;;;;;;;;7.80;99.90;;;;;;4304297;33;44613;-88
2022/04/08 04:54:23;;;;;;;;;;;7.80;99.90;;;;;;4304437;33;43897;-88
2022/04/08 04:56:50;;;;;;;;;;;7.80;99.90;;;;;;4317172;33;44698;-88
2022/04/08 04:59:18;;;;;;;;;;;7.80;99.90;;;;;;4317116;33;43249;-88
2022/04/08 05:01:45;;;;;;;;;;;7.70;99.90;;;;;;4317023;33;42506;-88
2022/04/08 05:04:13;;;;;;;;;;;7.70;99.90;;;;;;4304908;33;45158;-88
2022/04/08 05:06:40;;;;;;;;;;;7.70;99.90;;;;;;4303983;33;45703;-88
2022/04/08 05:09:07;;;;;;;;;;;7.70;99.90;;;;;;4304522;33;43105;-88
2022/04/08 05:11:34;;;;;;;;;;;7.70;99.90;;;;;;4303908;33;45694;-88
2022/04/08 05:14:01;;;;;;;;;;;7.70;99.90;;;;;;4317265;33;42938;-88
2022/04/08 05:16:29;;;;;;;;;;;7.70;99.90;;;;;;4304330;33;44005;-88
2022/04/08 05:18:56;;;;;;;;;;;7.70;99.90;;;;;;4304391;33;44764;-88
2022/04/08 05:21:23;;;;;;;;;;;7.70;99.90;;;;;;4317175;33;43291;-88
2022/04/08 05:23:50;;;;;;;;;;;7.70;99.90;;;;;;4304307;33;44175;-88
2022/04/08 05:26:18;;;;;;;;;;;7.70;99.90;;;;;;4317033;33;45738;-88
2022/04/08 05:28:46;;;;;;;;;;;7.70;99.90;;;;;;4304261;33;44878;-89
2022/04/08 05:31:13;;;;;;;;;;;7.70;99.90;;;;;;4303823;33;44095;-88
2022/04/08 05:33:40;;;;;;;;;;;7.70;99.90;;;;;;4304015;33;43260;-88
2022/04/08 05:36:07;;;;;;;;;;;7.70;99.90;;;;;;4303807;33;43267;-88
2022/04/08 05:38:34;;;;;;;;;;;7.70;99.90;;;;;;4317127;33;44211;-88
2022/04/08 05:41:01;;;;;;;;;;;7.70;99.90;;;;;;4303513;33;43119;-88
2022/04/08 05:43:28;;;;;;;;;;;7.70;99.90;;;;;;4303369;33;44880;-88
2022/04/08 05:45:55;;;;;;;;;;;7.70;99.90;;;;;;4303425;33;44849;-88
2022/04/08 05:48:23;;;;;;;;;;;7.70;99.90;;;;;;4303411;33;45131;-88
2022/04/08 05:50:50;;;;;;;;;;;7.70;99.90;;;;;;4303414;33;45849;-88
2022/04/08 05:53:17;;;;;;;;;;;7.70;99.90;;;;;;4316906;33;43485;-88
2022/04/08 05:56:02;;;;;;;;;;;7.70;99.90;;;;;;4305823;33;45136;-88
2022/04/08 05:58:30;;;;;;;;;;;7.70;99.90;;;;;;4316518;33;43824;-88
2022/04/08 06:00:57;;;;;;;;;;;7.70;99.90;;;;;;4303444;33;44140;-88
2022/04/08 06:03:24;;;;;;;;;;;7.70;99.90;;;;;;4303452;33;44045;-88
2022/04/08 06:05:51;;;;;;;;;;;7.70;99.90;;;;;;4303320;33;45779;-88
2022/04/08 06:08:18;;;;;;;;;;;7.70;99.90;;;;;;4316789;33;43514;-88
2022/04/08 06:10:45;;;;;;;;;;;7.80;99.90;;;;;;4316156;33;46126;-88
2022/04/08 06:13:12;;;;;;;;;;;7.70;99.90;;;;;;4316383;33;43494;-88
2022/04/08 06:15:39;;;;;;;;;;;7.70;99.90;;;;;;4303216;33;45247;-89
2022/04/08 06:18:09;;;;;;;;;;;7.70;99.90;;;;;;4303739;33;43825;-89
2022/04/08 06:20:36;;;;;;;;;;;7.70;99.90;;;;;;4316543;33;44007;-88
2022/04/08 06:23:03;;;;;;;;;;;7.70;99.90;;;;;;4303407;33;45033;-88
2022/04/08 06:25:30;;;;;;;;;;;7.70;99.90;;;;;;4303145;33;43132;-88
2022/04/08 06:28:00;;;;;;;;;;;7.70;99.90;;;;;;4302903;33;45883;-88
2022/04/08 06:30:27;;;;;;;;;;;7.80;99.90;;;;;;4303342;33;43477;-89
2022/04/08 06:32:54;;;;;;;;;;;7.80;99.90;;;;;;4302854;33;45580;-88
2022/04/08 06:35:22;;;;;;;;;;;7.80;99.90;;;;;;4316479;33;45854;-88
2022/04/08 06:37:49;;;;;;;;;;;7.80;99.90;;;;;;4302916;33;45070;-88
2022/04/08 06:40:16;;;;;;;;;;;7.80;99.90;;;;;;4302962;33;43281;-89
2022/04/08 06:42:43;;;;;;;;;;;7.70;99.90;;;;;;4303573;33;45880;-89
2022/04/08 06:45:10;;;;;;;;;;;7.80;99.90;;;;;;4303112;33;45331;-88
2022/04/08 06:47:45;;;;;;;;;;;7.80;99.90;;;;;;4303294;33;44516;-88
2022/04/08 06:50:12;;;;;;;;;;;7.80;99.90;;;;;;4302822;33;43311;-88
2022/04/08 06:52:39;;;;;;;;;;;7.80;99.90;;;;;;4302714;33;46143;-88
2022/04/08 06:55:07;;;;;;;;;;;7.80;99.90;;;;;;4303390;33;44220;-88
2022/04/08 06:57:34;;;;;;;;;;;7.80;99.90;;;;;;4315985;33;43961;-88
2022/04/08 07:00:03;;;;;;;;;;;7.80;99.90;;;;;;4303255;33;44441;-88
2022/04/08 07:02:30;;;;;;;;;;;7.80;99.90;;;;;;4315682;33;43505;-88
2022/04/08 07:04:59;;;;;;;;;;;7.80;99.90;;;;;;4302890;33;44089;-89
2022/04/08 07:07:31;;;;;;;;;;;7.80;99.90;;;;;;4303237;33;46096;-88
2022/04/08 07:09:58;;;;;;;;;;;7.80;99.90;;;;;;4316304;33;45980;-89
2022/04/08 07:12:26;;;;;;;;;;;7.80;99.90;;;;;;4302726;33;44125;-89
2022/04/08 07:14:54;;;;;;;;;;;7.80;99.90;;;;;;4316022;33;44177;-88
2022/04/08 07:17:27;;;;;;;;;;;7.90;99.90;;;;;;4302873;33;42775;-89
2022/04/08 07:20:14;;;;;;;;;;;7.90;99.90;;;;;;4305194;33;44449;-89
2022/04/08 07:22:42;;;;;;;;;;;7.80;99.90;;;;;;4318191;33;45253;-89
2022/04/08 07:25:09;;;;;;;;;;;7.80;99.90;;;;;;4318500;33;44132;-88
2022/04/08 07:27:44;;;;;;;;;;;7.80;99.90;;;;;;4319145;33;44077;-89
2022/04/08 07:30:11;;;;;;;;;;;7.80;99.90;;;;;;4305567;33;43380;-89
2022/04/08 07:32:38;;;;;;;;;;;7.80;99.90;;;;;;4305570;33;44968;-88
2022/04/08 07:35:07;;;;;;;;;;;7.90;99.90;;;;;;4305373;33;45912;-89
2022/04/08 07:37:34;;;;;;;;;;;7.80;99.90;;;;;;4305457;33;44696;-89
2022/04/08 07:40:05;;;;;;;;;;;7.90;99.90;;;;;;4305310;33;44936;-89
2022/04/08 07:42:32;;;;;;;;;;;7.90;99.90;;;;;;4305578;33;43460;-89
2022/04/08 07:44:59;;;;;;;;;;;7.90;99.90;;;;;;4318336;33;45079;-88
2022/04/08 07:47:29;;;;;;;;;;;7.90;99.90;;;;;;4305510;33;43985;-89
2022/04/08 07:49:57;;;;;;;;;;;7.90;99.90;;;;;;4305823;33;44942;-89
2022/04/08 07:52:25;;;;;;;;;;;7.90;99.90;;;;;;4305408;33;43141;-89
2022/04/08 07:54:53;;;;;;;;;;;7.90;99.90;;;;;;4305767;33;44261;-89
2022/04/08 07:57:20;;;;;;;;;;;7.90;99.90;;;;;;4305333;33;42744;-88
2022/04/08 07:59:47;;;;;;;;;;;7.90;99.90;;;;;;4305619;33;44154;-88
2022/04/08 08:02:15;;;;;;;;;;;7.90;99.90;;;;;;4305210;33;46164;-88
2022/04/08 08:04:48;;;;;;;;;;;7.90;99.90;;;;;;4306174;33;45021;-89
2022/04/08 08:07:17;;;;;;;;;;;7.90;99.90;;;;;;4305477;33;43173;-89
2022/04/08 08:09:44;;;;;;;;;;;7.90;99.90;;;;;;4305351;33;44916;-89
2022/04/08 08:12:21;;;;;;;;;;;7.90;99.90;;;;;;4318745;33;44888;-89
2022/04/08 08:14:48;;;;;;;;;;;7.90;99.90;;;;;;4305233;33;45021;-89
2022/04/08 08:17:15;;;;;;;;;;;7.90;99.90;;;;;;4318350;33;44811;-89
2022/04/08 08:19:42;;;;;;;;;;;7.90;99.90;;;;;;4304995;33;42419;-89
2022/04/08 08:22:09;;;;;;;;;;;7.90;99.90;;;;;;4318195;33;45885;-89
2022/04/08 08:24:36;;;;;;;;;;;7.90;99.90;;;;;;4318243;33;45077;-89
2022/04/08 08:27:04;;;;;;;;;;;7.90;99.90;;;;;;4305035;33;43836;-89
2022/04/08 08:29:31;;;;;;;;;;;7.90;99.90;;;;;;4305275;33;43522;-89
2022/04/08 08:31:58;;;;;;;;;;;7.90;99.90;;;;;;4317703;33;43705;-88
2022/04/08 08:34:26;;;;;;;;;;;7.90;99.90;;;;;;4304391;33;44149;-88
2022/04/08 08:36:57;;;;;;;;;;;7.90;99.90;;;;;;4305017;33;44148;-89
2022/04/08 08:39:24;;;;;;;;;;;7.90;99.90;;;;;;4305120;33;45707;-89
2022/04/08 08:41:51;;;;;;;;;;;7.90;99.90;;;;;;4305089;33;44781;-89
2022/04/08 08:44:19;;;;;;;;;;;7.90;99.90;;;;;;4318052;33;45258;-89
2022/04/08 08:46:47;;;;;;;;;;;7.90;99.90;;;;;;4317890;33;44073;-88
2022/04/08 08:49:18;;;;;;;;;;;7.90;99.90;;;;;;4304961;33;44934;-89
2022/04/08 08:51:51;;;;;;;;;;;7.90;99.90;;;;;;4317497;33;44843;-87
2022/04/08 08:54:18;;;;;;;;;;;8.00;99.90;;;;;;4304992;33;43266;-89
2022/04/08 08:56:45;;;;;;;;;;;7.90;99.90;;;;;;4305355;33;20006;-88
2022/04/08 08:59:14;;;;;;;;;;;8.00;99.90;;;;;;4304714;33;43283;-88
2022/04/08 09:01:47;;;;;;;;;;;7.90;99.90;;;;;;4304968;33;43983;-89
2022/04/08 09:04:15;;;;;;;;;;;7.90;99.90;;;;;;4317541;33;44983;-88
2022/04/08 09:06:42;;;;;;;;;;;7.90;99.90;;;;;;4304097;33;45223;-88
2022/04/08 09:09:11;;;;;;;;;;;7.90;99.90;;;;;;4304717;33;44897;-88
2022/04/08 09:11:38;;;;;;;;;;;7.90;99.90;;;;;;4304699;33;44940;-89
2022/04/08 09:14:05;;;;;;;;;;;7.90;99.90;;;;;;4317732;33;44993;-89
2022/04/08 09:16:36;;;;;;;;;;;7.90;99.90;;;;;;4304473;33;42785;-89
2022/04/08 09:19:13;;;;;;;;;;;8.00;99.90;;;;;;4304490;33;43627;-89
2022/04/08 09:21:50;;;;;;;;;;;7.90;99.90;;;;;;4304308;33;42558;-89
2022/04/08 09:24:17;;;;;;;;;;;7.90;99.90;;;;;;4304159;33;43265;-89
2022/04/08 09:26:44;;;;;;;;;;;7.90;99.90;;;;;;4304257;33;44134;-89
2022/04/08 09:29:11;;;;;;;;;;;8.00;99.90;;;;;;4317270;33;43902;-89
2022/04/08 09:31:41;;;;;;;;;;;8.00;99.90;;;;;;4304586;33;43266;-89
2022/04/08 09:34:13;;;;;;;;;;;7.90;99.90;;;;;;4304434;33;45939;-90
2022/04/08 09:36:40;;;;;;;;;;;8.00;99.90;;;;;;4304346;33;45153;-89
2022/04/08 09:39:10;;;;;;;;;;;8.00;99.90;;;;;;4303922;33;44055;-89
2022/04/08 09:41:38;;;;;;;;;;;7.90;99.90;;;;;;4317265;33;43285;-89
2022/04/08 09:44:06;;;;;;;;;;;7.90;99.90;;;;;;4303918;33;44738;-87
2022/04/08 09:46:33;;;;;;;;;;;7.90;99.90;;;;;;4304096;33;44862;-89
2022/04/08 09:49:01;;;;;;;;;;;7.90;99.90;;;;;;4303840;33;42925;-89
2022/04/08 09:51:29;;;;;;;;;;;7.90;99.90;;;;;;4316803;33;44288;-89
2022/04/08 09:54:02;;;;;;;;;;;7.90;99.90;;;;;;4303600;33;42910;-89
2022/04/08 09:56:29;;;;;;;;;;;8.00;99.90;;;;;;4304072;33;44144;-88
2022/04/08 09:59:05;;;;;;;;;;;7.90;99.90;;;;;;4304143;33;45891;-88
2022/04/08 10:01:33;;;;;;;;;;;7.90;99.90;;;;;;4303610;33;44343;-89
2022/04/08 10:04:03;;;;;;;;;;;7.90;99.90;;;;;;4303874;33;45828;-89
2022/04/08 10:06:30;;;;;;;;;;;7.90;99.90;;;;;;4316921;33;43011;-89
2022/04/08 10:08:59;;;;;;;;;;;7.90;99.90;;;;;;4303856;33;44105;-89
2022/04/08 10:11:40;;;;;;;;;;;7.90;99.90;;;;;;4316826;33;43794;-89
2022/04/08 10:14:17;;;;;;;;;;;7.90;99.90;;;;;;4303946;33;45690;-88
2022/04/08 10:16:45;;;;;;;;;;;7.90;99.90;;;;;;4303565;33;44029;-89
2022/04/08 10:19:14;;;;;;;;;;;7.90;99.90;;;;;;4316274;33;44856;-89
2022/04/08 10:21:41;;;;;;;;;;;7.90;99.90;;;;;;4303548;33;46069;-89
2022/04/08 10:24:10;;;;;;;;;;;8.00;99.90;;;;;;4303165;33;43268;-89
2022/04/08 10:26:55;;;;;;;;;;;8.00;99.90;;;;;;4303282;33;44463;-89
2022/04/08 10:29:22;;;;;;;;;;;7.90;99.90;;;;;;4304127;33;20006;-89
2022/04/08 10:32:02;;;;;;;;;;;8.00;99.90;;;;;;4316147;33;44587;-89
2022/04/08 10:34:32;;;;;;;;;;;7.90;99.90;;;;;;4316663;33;42964;-88
2022/04/08 10:37:00;;;;;;;;;;;7.90;99.90;;;;;;4316810;33;43133;-89
2022/04/08 10:39:27;;;;;;;;;;;8.00;99.90;;;;;;4316279;33;42963;-89
2022/04/08 10:42:00;;;;;;;;;;;8.00;99.90;;;;;;4302999;33;44863;-89
2022/04/08 10:44:37;;;;;;;;;;;7.90;99.90;;;;;;4303119;33;43175;-89
2022/04/08 10:47:17;;;;;;;;;;;7.90;99.90;;;;;;4303047;33;44671;-89
2022/04/08 10:49:49;;;;;;;;;;;8.00;99.90;;;;;;4316734;33;44781;-89
2022/04/08 10:52:18;;;;;;;;;;;8.00;99.90;;;;;;4303396;33;44774;-89
2022/04/08 10:54:45;;;;;;;;;;;7.90;99.90;;;;;;4303412;33;43447;-89
2022/04/08 10:57:12;;;;;;;;;;;7.90;99.90;;;;;;4302896;33;42829;-89
2022/04/08 10:59:39;;;;;;;;;;;7.90;99.90;;;;;;4316980;33;19998;-89
2022/04/08 11:02:12;;;;;;;;;;;7.90;99.90;;;;;;4302646;33;44275;-89
2022/04/08 11:04:39;;;;;;;;;;;7.90;99.90;;;;;;4316150;33;42749;-89
2022/04/08 11:07:06;;;;;;;;;;;7.90;99.90;;;;;;4302847;33;44754;-89
2022/04/08 11:09:34;;;;;;;;;;;7.90;99.90;;;;;;4302856;33;44195;-90
2022/04/08 11:12:02;;;;;;;;;;;7.90;99.90;;;;;;4302940;33;45131;-89
2022/04/08 11:14:29;;;;;;;;;;;7.80;99.90;;;;;;4303028;33;43966;-89
2022/04/08 11:16:57;;;;;;;;;;;7.80;99.90;;;;;;4303035;33;43509;-90
2022/04/08 11:19:24;;;;;;;;;;;7.80;99.90;;;;;;4303089;33;43533;-88
2022/04/08 11:21:56;;;;;;;;;;;7.80;99.90;;;;;;4303883;33;45676;-90
2022/04/08 11:24:23;;;;;;;;;;;7.80;99.90;;;;;;4303316;33;44293;-90
2022/04/08 11:26:51;;;;;;;;;;;7.70;99.90;;;;;;4302975;33;44121;-89
2022/04/08 11:29:20;;;;;;;;;;;7.70;99.90;;;;;;4303220;33;43918;-89
2022/04/08 11:31:48;;;;;;;;;;;7.80;99.90;;;;;;4316138;33;44087;-89
2022/04/08 11:34:16;;;;;;;;;;;7.70;99.90;;;;;;4315850;33;43972;-89
2022/04/08 11:36:44;;;;;;;;;;;7.70;99.90;;;;;;4303068;33;45990;-89
2022/04/08 11:39:19;;;;;;;;;;;7.80;99.90;;;;;;4315877;33;42516;-90
2022/04/08 11:41:50;;;;;;;;;;;7.70;99.90;;;;;;4303267;33;44238;-89
2022/04/08 11:44:17;;;;;;;;;;;7.70;99.90;;;;;;4302788;33;42360;-90
2022/04/08 11:46:44;;;;;;;;;;;7.70;99.90;;;;;;4303356;33;43477;-91
2022/04/08 11:49:12;;;;;;;;;;;7.70;99.90;;;;;;4315373;33;44766;-90
2022/04/08 11:51:41;;;;;;;;;;;7.70;99.90;;;;;;4302958;33;44983;-90
2022/04/08 11:54:09;;;;;;;;;;;7.70;99.90;;;;;;4303373;33;44785;-90
2022/04/08 11:56:37;;;;;;;;;;;7.70;99.90;;;;;;4302905;33;43993;-90
2022/04/08 11:59:05;;;;;;;;;;;7.60;99.90;;;;;;4303085;33;45727;-90
2022/04/08 12:01:34;;;;;;;;;;;7.60;99.90;;;;;;4302653;33;45932;-90
2022/04/08 12:04:04;;;;;;;;;;;7.60;99.90;;;;;;4316360;33;44103;-91
2022/04/08 12:06:41;;;;;;;;;;;7.70;99.90;;;;;;4303312;33;45216;-90
2022/04/08 12:09:09;;;;;;;;;;;7.60;99.90;;;;;;4305895;33;44981;-90
2022/04/08 12:11:40;;;;;;;;;;;7.60;99.90;;;;;;4306271;33;43107;-90
2022/04/08 12:14:14;;;;;;;;;;;7.60;99.90;;;;;;4306758;33;44980;-90
2022/04/08 12:16:45;;;;;;;;;;;7.60;99.90;;;;;;4317406;33;44551;-91
2022/04/08 12:19:12;;;;;;;;;;;7.60;99.90;;;;;;4305575;33;44026;-90
2022/04/08 12:21:59;;;;;;;;;;;7.60;99.90;;;;;;4318927;33;46445;-90
2022/04/08 12:24:27;;;;;;;;;;;7.60;99.90;;;;;;4305582;33;45744;-90
2022/04/08 12:26:54;;;;;;;;;;;7.60;99.90;;;;;;4305560;33;44855;-90
2022/04/08 12:29:26;;;;;;;;;;;7.60;99.90;;;;;;4305602;33;46013;-90
2022/04/08 12:31:55;;;;;;;;;;;7.60;99.90;;;;;;4305839;33;43185;-90
2022/04/08 12:34:22;;;;;;;;;;;7.60;99.90;;;;;;4318605;33;43307;-90
2022/04/08 12:36:49;;;;;;;;;;;7.60;99.90;;;;;;4305246;33;42512;-90
2022/04/08 12:39:17;;;;;;;;;;;7.60;99.90;;;;;;4305518;33;45933;-90
2022/04/08 12:41:45;;;;;;;;;;;7.60;99.90;;;;;;4318524;33;45901;-90
2022/04/08 12:44:13;;;;;;;;;;;7.60;99.90;;;;;;4305599;33;42652;-90
2022/04/08 12:46:40;;;;;;;;;;;7.60;99.90;;;;;;4305294;33;42524;-90
2022/04/08 12:49:07;;;;;;;;;;;7.60;99.90;;;;;;4318248;33;45073;-91
2022/04/08 12:51:34;;;;;;;;;;;7.60;99.90;;;;;;4305513;33;45372;-91
2022/04/08 12:54:01;;;;;;;;;;;7.60;99.90;;;;;;4305527;33;44317;-90
2022/04/08 12:56:28;;;;;;;;;;;7.60;99.90;;;;;;4304975;33;45889;-90
2022/04/08 12:58:55;;;;;;;;;;;7.50;99.90;;;;;;4305528;33;44934;-91
2022/04/08 13:01:22;;;;;;;;;;;7.50;99.90;;;;;;4305031;33;43938;-91
2022/04/08 13:03:50;;;;;;;;;;;7.60;99.90;;;;;;4305526;33;44687;-90
2022/04/08 13:06:17;;;;;;;;;;;7.50;99.90;;;;;;4305252;33;44917;-91
2022/04/08 13:08:44;;;;;;;;;;;7.50;99.90;;;;;;4305284;33;43352;-91
2022/04/08 13:11:11;;;;;;;;;;;7.60;99.90;;;;;;4305352;33;45402;-90
2022/04/08 13:13:38;;;;;;;;;;;7.50;99.90;;;;;;4305334;33;45800;-91
2022/04/08 13:16:05;;;;;;;;;;;7.50;99.90;;;;;;4318114;33;43068;-91
2022/04/08 13:18:33;;;;;;;;;;;7.50;99.90;;;;;;4304690;33;45179;-91
2022/04/08 13:21:00;;;;;;;;;;;7.50;99.90;;;;;;4318295;33;44951;-91
2022/04/08 13:23:27;;;;;;;;;;;7.50;99.90;;;;;;4305256;33;43981;-91
2022/04/08 13:25:54;;;;;;;;;;;7.50;99.90;;;;;;4305101;33;45899;-91
2022/04/08 13:28:21;;;;;;;;;;;7.50;99.90;;;;;;4318116;33;44477;-90
2022/04/08 13:30:48;;;;;;;;;;;7.50;99.90;;;;;;4304740;33;45118;-91
2022/04/08 13:33:16;;;;;;;;;;;7.50;99.90;;;;;;4305124;33;44645;-91
2022/04/08 13:35:43;;;;;;;;;;;7.50;99.90;;;;;;4304889;33;45813;-91
2022/04/08 13:38:10;;;;;;;;;;;7.50;99.90;;;;;;4304918;33;44256;-91
2022/04/08 13:40:37;;;;;;;;;;;7.50;99.90;;;;;;4317682;33;43811;-91
2022/04/08 13:43:04;;;;;;;;;;;7.50;99.90;;;;;;4304815;33;42769;-90
2022/04/08 13:45:31;;;;;;;;;;;7.50;99.90;;;;;;4317991;33;45728;-90
2022/04/08 13:47:58;;;;;;;;;;;7.60;99.90;;;;;;4304565;33;43298;-92
2022/04/08 13:50:26;;;;;;;;;;;7.50;99.90;;;;;;4304073;33;44264;-91
2022/04/08 13:52:53;;;;;;;;;;;7.50;99.90;;;;;;4304710;33;44104;-90
2022/04/08 13:55:20;;;;;;;;;;;7.50;99.90;;;;;;4304370;33;44264;-91
2022/04/08 13:57:47;;;;;;;;;;;7.50;99.90;;;;;;4304469;33;45692;-90
2022/04/08 14:00:15;;;;;;;;;;;7.50;99.90;;;;;;4317359;33;43288;-90
2022/04/08 14:02:42;;;;;;;;;;;7.50;99.90;;;;;;4304189;33;43955;-90
2022/04/08 14:05:09;;;;;;;;;;;7.60;99.90;;;;;;4304607;33;44201;-91
2022/04/08 14:07:36;;;;;;;;;;;7.50;99.90;;;;;;4303962;33;45668;-91
2022/04/08 14:10:04;;;;;;;;;;;7.50;99.90;;;;;;4304058;33;43081;-92
2022/04/08 14:12:31;;;;;;;;;;;7.50;99.90;;;;;;4304326;33;44262;-90
2022/04/08 14:14:58;;;;;;;;;;;7.50;99.90;;;;;;4304377;33;44826;-90
2022/04/08 14:17:45;;;;;;;;;;;7.50;99.90;;;;;;4317269;33;46236;-91
2022/04/08 14:20:12;;;;;;;;;;;7.50;99.90;;;;;;4304327;33;44345;-90
2022/04/08 14:22:39;;;;;;;;;;;7.50;99.90;;;;;;4316633;33;44259;-91
2022/04/08 14:25:07;;;;;;;;;;;7.50;99.90;;;;;;4303918;33;45499;-90
2022/04/08 14:27:54;;;;;;;;;;;7.50;99.90;;;;;;4306114;33;43840;-91
2022/04/08 14:30:21;;;;;;;;;;;7.50;99.90;;;;;;4303767;33;45803;-90
2022/04/08 14:32:48;;;;;;;;;;;7.50;99.90;;;;;;4316721;33;42961;-90
2022/04/08 14:35:16;;;;;;;;;;;7.50;99.90;;;;;;4303877;33;43490;-91
2022/04/08 14:37:43;;;;;;;;;;;7.50;99.90;;;;;;4303811;33;44858;-90